Search for the current weather situation

Metar

Metar
TNCB 240755Z AUTO 09014KT 9999 SCT016/// SCT024/// BKN034/// 26/21 Q1013
Decoded Metar

TAF

TAF
TNCB 240755Z AUTO 09014KT 9999 SCT016/// SCT024/// BKN034/// 26/21 Q1013
Decoded TAF
Top